createdAt,value
2018-06-22T00:01:21.164Z,101351.45
2018-06-22T00:03:49.595Z,101350.59
2018-06-22T00:06:18.020Z,101337.16
2018-06-22T00:08:46.480Z,101331.98
2018-06-22T00:11:14.876Z,101323.70
2018-06-22T00:13:43.249Z,101324.17
2018-06-22T00:16:11.733Z,101312.45
2018-06-22T00:18:40.237Z,101311.58
2018-06-22T00:21:10.416Z,101312.02
2018-06-22T00:23:38.901Z,101310.28
2018-06-22T00:26:07.318Z,101302.88
2018-06-22T00:28:35.784Z,101297.25
2018-06-22T00:31:04.465Z,101290.72
2018-06-22T00:33:32.942Z,101297.68
2018-06-22T00:36:01.330Z,101293.35
2018-06-22T00:38:29.915Z,101292.47
2018-06-22T00:40:58.477Z,101291.63
2018-06-22T00:43:26.864Z,101289.02
2018-06-22T00:45:55.326Z,101284.69
2018-06-22T00:48:23.824Z,101281.19
2018-06-22T00:50:52.330Z,101282.50
2018-06-22T00:53:32.082Z,101273.80
2018-06-22T00:56:00.534Z,101276.81
2018-06-22T00:58:29.057Z,101269.87
2018-06-22T01:00:57.764Z,101282.92
2018-06-22T01:03:26.290Z,101278.12
2018-06-22T01:05:54.800Z,101275.95
2018-06-22T01:08:23.413Z,101277.27
2018-06-22T01:10:51.805Z,101268.98
2018-06-22T01:13:20.301Z,101269.44
2018-06-22T01:15:48.819Z,101266.41
2018-06-22T01:18:17.326Z,101266.85
2018-06-22T01:20:45.739Z,101263.78
2018-06-22T01:23:14.197Z,101265.09
2018-06-22T01:25:42.744Z,101252.49
2018-06-22T01:28:11.231Z,101256.41
2018-06-22T01:30:39.621Z,101251.20
2018-06-22T01:33:08.309Z,101253.36
2018-06-22T01:35:36.813Z,101252.08
2018-06-22T01:38:05.195Z,101259.02
2018-06-22T01:40:33.676Z,101251.17
2018-06-22T01:43:02.162Z,101249.02
2018-06-22T01:45:30.571Z,101253.34
2018-06-22T01:47:59.944Z,101241.61
2018-06-22T01:50:31.612Z,101239.86
2018-06-22T01:53:00.017Z,101242.88
2018-06-22T01:55:28.412Z,101241.16
2018-06-22T01:57:57.057Z,101238.09
2018-06-22T02:00:26.225Z,101239.38
2018-06-22T02:02:54.627Z,101230.67
2018-06-22T02:05:23.089Z,101231.96
2018-06-22T02:07:51.510Z,101231.53
2018-06-22T02:10:20.542Z,101223.27
2018-06-22T02:12:48.966Z,101221.97
2018-06-22T02:15:17.439Z,101228.92
2018-06-22T02:17:46.012Z,101226.31
2018-06-22T02:20:14.500Z,101222.39
2018-06-22T02:22:42.888Z,101222.38
2018-06-22T02:25:11.349Z,101218.01
2018-06-22T02:27:39.738Z,101215.83
2018-06-22T02:30:09.329Z,101213.64
2018-06-22T02:32:37.864Z,101207.55
2018-06-22T02:35:06.374Z,101210.61
2018-06-22T02:37:34.836Z,101199.73
2018-06-22T02:40:03.336Z,101208.42
2018-06-22T02:42:31.744Z,101196.26
2018-06-22T02:45:00.232Z,101192.73
2018-06-22T02:47:29.581Z,101205.78
2018-06-22T02:49:58.813Z,101201.84
2018-06-22T02:52:27.196Z,101196.62
2018-06-22T02:54:55.577Z,101184.43
2018-06-22T02:57:23.998Z,101193.53
2018-06-22T02:59:52.504Z,101185.27
2018-06-22T03:02:20.889Z,101182.27
2018-06-22T03:04:49.375Z,101182.66
2018-06-22T03:07:18.200Z,101180.53
2018-06-22T03:09:46.688Z,101176.64
2018-06-22T03:12:15.072Z,101185.34
2018-06-22T03:14:43.485Z,101176.62
2018-06-22T03:17:11.910Z,101175.33
2018-06-22T03:19:40.399Z,101180.55
2018-06-22T03:22:08.881Z,101183.62
2018-06-22T03:24:37.245Z,101173.60
2018-06-22T03:27:05.704Z,101175.79
2018-06-22T03:29:34.203Z,101167.52
2018-06-22T03:32:02.633Z,101169.70
2018-06-22T03:34:31.042Z,101168.86
2018-06-22T03:36:59.612Z,101168.42
2018-06-22T03:39:28.086Z,101166.20
2018-06-22T03:41:56.489Z,101155.74
2018-06-22T03:44:24.948Z,101164.45
2018-06-22T03:46:53.419Z,101154.86
2018-06-22T03:49:21.889Z,101156.20
2018-06-22T03:51:50.344Z,101145.32
2018-06-22T03:54:18.854Z,101147.95
2018-06-22T03:56:47.383Z,101150.58
2018-06-22T03:59:15.909Z,101143.20
2018-06-22T04:01:44.379Z,101143.64
2018-06-22T04:04:12.808Z,101151.48
2018-06-22T04:06:41.276Z,101157.20
2018-06-22T04:09:09.781Z,101157.62
2018-06-22T04:11:39.542Z,101150.70
2018-06-22T04:14:09.028Z,101152.47
2018-06-22T04:16:37.824Z,101154.67
2018-06-22T04:19:07.357Z,101147.75
2018-06-22T04:21:35.844Z,101152.97
2018-06-22T04:24:04.281Z,101143.86
2018-06-22T04:26:32.757Z,101151.73
2018-06-22T04:29:01.254Z,101155.19
2018-06-22T04:31:29.736Z,101150.86
2018-06-22T04:33:58.984Z,101152.61
2018-06-22T04:36:27.412Z,101155.66
2018-06-22T04:38:55.845Z,101170.42
2018-06-22T04:41:24.481Z,101170.44
2018-06-22T04:43:52.889Z,101175.22
2018-06-22T04:46:21.408Z,101163.48
2018-06-22T04:48:49.804Z,101165.23
2018-06-22T04:51:18.337Z,101165.66
2018-06-22T04:53:46.936Z,101172.61
2018-06-22T04:56:15.347Z,101173.06
2018-06-22T04:58:43.780Z,101178.70
2018-06-22T05:01:12.998Z,101180.44
2018-06-22T05:03:41.507Z,101168.28
2018-06-22T05:06:09.922Z,101183.46
2018-06-22T05:08:38.336Z,101174.34
2018-06-22T05:11:06.822Z,101171.73
2018-06-22T05:13:35.306Z,101170.87
2018-06-22T05:16:04.527Z,101168.70
2018-06-22T05:18:32.996Z,101172.20
2018-06-22T05:21:01.469Z,101168.27
2018-06-22T05:23:29.888Z,101165.23
2018-06-22T05:25:58.276Z,101170.87
2018-06-22T05:28:27.590Z,101170.00
2018-06-22T05:30:56.106Z,101174.36
2018-06-22T05:33:24.492Z,101172.17
2018-06-22T05:35:52.923Z,101176.53
2018-06-22T05:38:22.162Z,101186.05
2018-06-22T05:40:50.560Z,101187.38
2018-06-22T05:43:19.148Z,101191.25
2018-06-22T05:45:47.548Z,101189.07
2018-06-22T05:48:16.030Z,101189.97
2018-06-22T05:50:44.526Z,101193.89
2018-06-22T05:53:13.045Z,101203.00
2018-06-22T05:55:41.535Z,101210.41
2018-06-22T05:58:10.006Z,101219.09
2018-06-22T06:00:38.420Z,101218.64
2018-06-22T06:03:06.903Z,101224.31
2018-06-22T06:05:35.438Z,101239.08
2018-06-22T06:08:03.993Z,101242.12
2018-06-22T06:10:32.384Z,101243.83
2018-06-22T06:13:01.409Z,101239.48
2018-06-22T06:15:29.804Z,101231.66
2018-06-22T06:17:58.195Z,101242.56
2018-06-22T06:20:26.677Z,101243.84
2018-06-22T06:22:55.175Z,101250.81
2018-06-22T06:25:23.649Z,101263.83
2018-06-22T06:27:52.240Z,101262.08
2018-06-22T06:30:25.858Z,101261.64
2018-06-22T06:32:54.334Z,101265.11
2018-06-22T06:35:22.729Z,101260.33
2018-06-22T06:37:51.212Z,101259.91
2018-06-22T06:40:19.640Z,101251.64
2018-06-22T06:42:48.268Z,101254.68
2018-06-22T06:45:16.660Z,101262.49
2018-06-22T06:47:45.145Z,101261.16
2018-06-22T06:50:13.574Z,101272.91
2018-06-22T06:52:42.208Z,101259.42
2018-06-22T06:55:10.706Z,101272.41
2018-06-22T06:57:39.341Z,101271.45
2018-06-22T07:00:08.257Z,101273.55
2018-06-22T07:02:36.770Z,101271.37
2018-06-22T07:05:05.445Z,101277.03
2018-06-22T07:07:33.851Z,101280.91
2018-06-22T07:10:02.269Z,101277.77
2018-06-22T07:12:30.744Z,101277.69
2018-06-22T07:14:59.146Z,101274.09
2018-06-22T07:17:27.540Z,101289.95
2018-06-22T07:19:55.960Z,101290.72
2018-06-22T07:22:24.536Z,101281.67
2018-06-22T07:24:52.953Z,101288.22
2018-06-22T07:27:21.345Z,101289.88
2018-06-22T07:29:49.756Z,101297.03
2018-06-22T07:32:19.017Z,101306.56
2018-06-22T07:34:47.785Z,101304.19
2018-06-22T07:37:16.172Z,101297.16
2018-06-22T07:39:44.561Z,101300.78
2018-06-22T07:42:14.181Z,101295.21
2018-06-22T07:44:43.143Z,101293.42
2018-06-22T07:47:11.572Z,101293.79
2018-06-22T07:49:39.952Z,101295.63
2018-06-22T07:52:08.605Z,101296.09
2018-06-22T07:54:37.286Z,101293.59
2018-06-22T07:57:08.816Z,101308.77
2018-06-22T07:59:37.218Z,101306.56
2018-06-22T08:02:05.631Z,101298.78
2018-06-22T08:04:34.372Z,101308.30
2018-06-22T08:07:02.844Z,101304.30
2018-06-22T08:09:31.249Z,101302.34
2018-06-22T08:11:59.653Z,101317.59
2018-06-22T08:14:28.137Z,101320.61
2018-06-22T08:16:56.587Z,101325.03
2018-06-22T08:19:24.928Z,101332.55
2018-06-22T08:21:53.464Z,101324.28
2018-06-22T08:24:21.944Z,101333.41
2018-06-22T08:26:50.360Z,101347.03
2018-06-22T08:29:18.745Z,101350.62
2018-06-22T08:31:47.112Z,101348.55
2018-06-22T08:34:16.212Z,101342.47
2018-06-22T08:36:44.671Z,101335.13
2018-06-22T08:39:13.071Z,101339.91
2018-06-22T08:41:41.705Z,101342.48
2018-06-22T08:44:10.682Z,101362.98
2018-06-22T08:46:39.057Z,101367.41
2018-06-22T08:49:07.512Z,101364.33
2018-06-22T08:51:35.920Z,101369.65
2018-06-22T08:54:05.176Z,101371.08
2018-06-22T08:56:33.550Z,101368.48
2018-06-22T08:59:01.930Z,101370.17
2018-06-22T09:01:30.343Z,101374.42
2018-06-22T09:03:58.836Z,101374.28
2018-06-22T09:06:27.511Z,101371.98
2018-06-22T09:08:55.919Z,101364.55
2018-06-22T09:11:24.332Z,101374.16
2018-06-22T09:13:52.813Z,101380.81
2018-06-22T09:16:21.228Z,101376.54
2018-06-22T09:18:49.616Z,101376.09
2018-06-22T09:21:18.062Z,101379.56
2018-06-22T09:23:47.517Z,101390.27
2018-06-22T09:26:16.043Z,101392.78
2018-06-22T09:28:44.395Z,101394.24
2018-06-22T09:31:12.847Z,101394.88
2018-06-22T09:33:41.348Z,101391.17
2018-06-22T09:36:09.828Z,101405.44
2018-06-22T09:38:38.212Z,101396.05
2018-06-22T09:41:06.711Z,101398.42
2018-06-22T09:43:35.129Z,101390.26
2018-06-22T09:46:03.624Z,101386.22
2018-06-22T09:48:31.992Z,101384.81
2018-06-22T09:51:00.438Z,101390.45
2018-06-22T09:53:28.900Z,101396.87
2018-06-22T09:55:57.377Z,101401.78
2018-06-22T09:58:25.761Z,101390.55
2018-06-22T10:00:54.163Z,101389.19
2018-06-22T10:03:24.352Z,101384.25
2018-06-22T10:05:52.917Z,101383.48
2018-06-22T10:08:21.475Z,101384.27
2018-06-22T10:10:49.837Z,101372.36
2018-06-22T10:13:18.237Z,101377.91
2018-06-22T10:15:54.027Z,101379.49
2018-06-22T10:18:23.609Z,101379.34
2018-06-22T10:20:52.137Z,101373.86
2018-06-22T10:23:20.557Z,101385.24
2018-06-22T10:25:49.305Z,101404.53
2018-06-22T10:28:17.934Z,101409.95
2018-06-22T10:30:46.423Z,101402.70
2018-06-22T10:33:16.829Z,101398.94
2018-06-22T10:35:45.308Z,101397.72
2018-06-22T10:38:13.689Z,101402.25
2018-06-22T10:40:42.133Z,101397.92
2018-06-22T10:43:10.622Z,101401.20
2018-06-22T10:45:39.243Z,101407.13
2018-06-22T10:48:07.606Z,101416.20
2018-06-22T10:50:36.216Z,101414.25
2018-06-22T10:53:04.625Z,101414.11
2018-06-22T10:55:33.112Z,101417.93
2018-06-22T10:58:01.498Z,101413.20
2018-06-22T11:00:31.514Z,101418.92
2018-06-22T11:02:59.919Z,101422.53
2018-06-22T11:05:28.389Z,101424.59
2018-06-22T11:07:56.782Z,101423.37
2018-06-22T11:10:25.221Z,101423.02
2018-06-22T11:12:53.618Z,101418.65
2018-06-22T11:15:22.165Z,101423.03
2018-06-22T11:17:50.553Z,101423.27
2018-06-22T11:20:18.927Z,101413.43
2018-06-22T11:22:47.337Z,101423.09
2018-06-22T11:25:15.915Z,101421.98
2018-06-22T11:27:44.324Z,101410.16
2018-06-22T11:30:12.721Z,101406.17
2018-06-22T11:32:41.135Z,101416.20
2018-06-22T11:35:09.727Z,101422.65
2018-06-22T11:37:38.164Z,101426.64
2018-06-22T11:40:06.537Z,101443.75
2018-06-22T11:42:34.904Z,101486.90
2018-06-22T11:45:03.544Z,101496.90
2018-06-22T11:47:32.034Z,101486.67
2018-06-22T11:50:00.941Z,101479.04
2018-06-22T11:52:29.332Z,101477.05
2018-06-22T11:54:57.711Z,101470.06
2018-06-22T11:57:26.406Z,101465.14
2018-06-22T11:59:54.780Z,101463.71
2018-06-22T12:02:23.165Z,101458.70
2018-06-22T12:04:51.609Z,101459.95
2018-06-22T12:07:20.108Z,101456.39
2018-06-22T12:09:48.504Z,101456.81
2018-06-22T12:12:16.960Z,101455.89
2018-06-22T12:14:46.545Z,101457.56
2018-06-22T12:17:15.030Z,101462.42
2018-06-22T12:19:43.532Z,101448.86
2018-06-22T12:22:12.007Z,101456.19
2018-06-22T12:24:40.397Z,101460.06
2018-06-22T12:27:08.912Z,101459.77
2018-06-22T12:29:37.297Z,101462.36
2018-06-22T12:32:05.711Z,101462.59
2018-06-22T12:34:34.130Z,101450.27
2018-06-22T12:37:02.614Z,101458.11
2018-06-22T12:39:31.000Z,101445.98
2018-06-22T12:41:59.465Z,101448.06
2018-06-22T12:44:27.968Z,101447.95
2018-06-22T12:46:56.612Z,101445.83
2018-06-22T12:49:25.005Z,101442.22
2018-06-22T12:51:53.473Z,101448.53
2018-06-22T12:54:21.884Z,101448.48
2018-06-22T12:56:50.444Z,101455.83
2018-06-22T12:59:18.821Z,101451.68
2018-06-22T13:01:47.214Z,101454.16
2018-06-22T13:04:16.279Z,101449.47
2018-06-22T13:06:45.409Z,101454.12
2018-06-22T13:09:14.065Z,101451.55
2018-06-22T13:11:42.576Z,101455.56
2018-06-22T13:14:10.951Z,101456.50
2018-06-22T13:16:39.459Z,101444.63
2018-06-22T13:19:07.928Z,101451.53
2018-06-22T13:21:50.487Z,101449.91
2018-06-22T13:24:19.753Z,101449.78
2018-06-22T13:26:48.229Z,101442.44
2018-06-22T13:29:16.650Z,101439.26
2018-06-22T13:31:45.187Z,101443.06
2018-06-22T13:34:14.939Z,101446.50
2018-06-22T13:36:44.784Z,101439.61
2018-06-22T13:39:15.112Z,101441.39
2018-06-22T13:41:43.837Z,101444.73
2018-06-22T13:44:12.269Z,101450.05
2018-06-22T13:46:41.853Z,101446.64
2018-06-22T13:49:10.932Z,101451.36
2018-06-22T13:51:40.443Z,101463.38
2018-06-22T13:54:09.369Z,101476.95
2018-06-22T13:56:38.378Z,101491.25
2018-06-22T13:59:07.857Z,101493.06
2018-06-22T14:01:36.669Z,101498.92
2018-06-22T14:04:10.381Z,101496.30
2018-06-22T14:06:44.009Z,101487.08
2018-06-22T14:09:14.769Z,101492.08
2018-06-22T14:11:43.877Z,101480.83
2018-06-22T14:14:12.334Z,101485.80
2018-06-22T14:16:41.560Z,101489.41
2018-06-22T14:19:10.283Z,101487.00
2018-06-22T14:21:38.709Z,101491.32
2018-06-22T14:24:08.594Z,101486.28
2018-06-22T14:26:37.273Z,101484.23
2018-06-22T14:29:05.980Z,101492.00
2018-06-22T14:31:34.486Z,101492.68
2018-06-22T14:34:04.669Z,101491.81
2018-06-22T14:36:33.070Z,101487.31
2018-06-22T14:39:01.742Z,101492.48
2018-06-22T14:41:30.156Z,101495.78
2018-06-22T14:43:58.552Z,101499.55
2018-06-22T14:46:27.070Z,101501.92
2018-06-22T14:48:55.568Z,101498.47
2018-06-22T14:51:24.794Z,101503.10
2018-06-22T14:53:58.974Z,101511.77
2018-06-22T14:56:32.721Z,101524.53
2018-06-22T14:59:06.562Z,101529.22
2018-06-22T15:01:40.189Z,101534.13
2018-06-22T15:04:14.014Z,101535.48
2018-06-22T15:06:47.744Z,101536.27
2018-06-22T15:09:16.838Z,101537.52
2018-06-22T15:11:45.213Z,101537.97
2018-06-22T15:14:13.599Z,101544.65
2018-06-22T15:16:43.608Z,101547.45
2018-06-22T15:19:12.258Z,101541.82
2018-06-22T15:21:40.665Z,101539.26
2018-06-22T15:24:09.077Z,101530.59
2018-06-22T15:26:38.325Z,101529.14
2018-06-22T15:29:06.813Z,101539.59
2018-06-22T15:31:35.465Z,101535.97
2018-06-22T15:34:09.213Z,101542.47
2018-06-22T15:36:43.021Z,101536.89
2018-06-22T15:39:16.862Z,101535.84
2018-06-22T15:41:50.502Z,101539.13
2018-06-22T15:44:24.960Z,101545.93
2018-06-22T15:48:01.657Z,101540.83
2018-06-22T15:50:35.497Z,101536.03
2018-06-22T15:53:09.206Z,101538.52
2018-06-22T15:55:41.392Z,101558.58
2018-06-22T15:58:09.944Z,101545.61
2018-06-22T16:00:39.628Z,101550.42
2018-06-22T16:03:13.364Z,101549.09
2018-06-22T16:05:42.069Z,101548.23
2018-06-22T16:08:10.480Z,101545.06
2018-06-22T16:10:40.824Z,101548.52
2018-06-22T16:13:14.704Z,101556.80
2018-06-22T16:15:48.405Z,101567.49
2018-06-22T16:18:22.164Z,101560.62
2018-06-22T16:20:55.953Z,101561.42
2018-06-22T16:23:29.702Z,101565.13
2018-06-22T16:26:03.248Z,101564.19
2018-06-22T16:28:31.724Z,101563.16
2018-06-22T16:31:00.241Z,101557.77
2018-06-22T16:33:28.642Z,101558.77
2018-06-22T16:35:57.094Z,101554.77
2018-06-22T16:38:25.563Z,101559.63
2018-06-22T16:40:54.311Z,101562.47
2018-06-22T16:43:22.809Z,101569.23
2018-06-22T16:45:51.295Z,101565.13
2018-06-22T16:48:20.634Z,101565.66
2018-06-22T16:50:49.098Z,101562.46
2018-06-22T16:53:17.461Z,101569.30
2018-06-22T16:55:45.876Z,101569.92
2018-06-22T16:58:19.513Z,101570.33
2018-06-22T17:00:47.993Z,101571.34
2018-06-22T17:03:16.378Z,101569.37
2018-06-22T17:05:44.810Z,101564.29
2018-06-22T17:08:18.532Z,101562.87
2018-06-22T17:10:53.190Z,101566.89
2018-06-22T17:13:26.683Z,101576.84
2018-06-22T17:16:00.480Z,101572.70
2018-06-22T17:18:34.114Z,101578.59
2018-06-22T17:21:02.633Z,101565.16
2018-06-22T17:23:31.033Z,101569.67
2018-06-22T17:25:59.449Z,101575.45
2018-06-22T17:28:27.825Z,101568.87
2018-06-22T17:30:56.453Z,101569.56
2018-06-22T17:33:26.013Z,101576.91
2018-06-22T17:35:54.420Z,101581.73
2018-06-22T17:38:22.849Z,101582.98
2018-06-22T17:40:51.581Z,101587.42
2018-06-22T17:43:20.161Z,101591.11
2018-06-22T17:45:48.572Z,101596.02
2018-06-22T17:48:16.945Z,101588.61
2018-06-22T17:50:45.668Z,101588.79
2018-06-22T17:53:14.049Z,101583.52
2018-06-22T17:55:42.430Z,101589.28
2018-06-22T17:58:10.930Z,101587.55
2018-06-22T18:00:50.689Z,101580.52
2018-06-22T18:04:26.345Z,101595.46
2018-06-22T18:07:00.613Z,101591.45
2018-06-22T18:09:34.120Z,101587.95
2018-06-22T18:12:07.843Z,101593.30
2018-06-22T18:14:36.231Z,101594.62
2018-06-22T18:17:04.625Z,101588.08
2018-06-22T18:19:34.066Z,101602.97
2018-06-22T18:22:02.516Z,101599.34
2018-06-22T18:24:30.885Z,101597.94
2018-06-22T18:26:59.264Z,101598.61
2018-06-22T18:29:28.133Z,101610.61
2018-06-22T18:31:57.398Z,101616.56
2018-06-22T18:34:25.897Z,101609.95
2018-06-22T18:36:54.430Z,101606.23
2018-06-22T18:39:22.949Z,101616.99
2018-06-22T18:41:51.640Z,101619.02
2018-06-22T18:44:20.040Z,101616.53
2018-06-22T18:46:48.429Z,101625.34
2018-06-22T18:49:17.727Z,101621.91
2018-06-22T18:51:46.474Z,101621.88
2018-06-22T18:54:20.036Z,101627.08
2018-06-22T18:56:53.588Z,101620.15
2018-06-22T18:59:27.368Z,101618.42
2018-06-22T19:02:01.203Z,101622.88
2018-06-22T19:04:29.592Z,101631.20
2018-06-22T19:06:57.997Z,101625.17
2018-06-22T19:09:26.677Z,101629.59
2018-06-22T19:11:55.144Z,101634.94
2018-06-22T19:14:23.534Z,101628.52
2018-06-22T19:16:52.057Z,101633.70
2018-06-22T19:19:20.524Z,101639.87
2018-06-22T19:21:49.006Z,101635.55
2018-06-22T19:24:17.421Z,101634.27
2018-06-22T19:26:45.843Z,101640.39
2018-06-22T19:29:14.237Z,101641.28
2018-06-22T19:31:42.727Z,101642.56
2018-06-22T19:34:11.145Z,101643.06
2018-06-22T19:36:39.561Z,101640.84
2018-06-22T19:39:09.227Z,101644.80
2018-06-22T19:41:38.584Z,101648.34
2018-06-22T19:44:12.159Z,101651.97
2018-06-22T19:46:45.811Z,101649.03
2018-06-22T19:49:19.467Z,101655.97
2018-06-22T19:51:53.531Z,101656.92
2018-06-22T19:54:21.904Z,101658.31
2018-06-22T19:56:50.285Z,101661.09
2018-06-22T19:59:19.565Z,101663.38
2018-06-22T20:01:49.436Z,101667.83
2018-06-22T20:04:17.816Z,101670.11
2018-06-22T20:06:46.201Z,101671.02
2018-06-22T20:09:14.633Z,101675.91
2018-06-22T20:11:43.413Z,101675.97
2018-06-22T20:14:11.889Z,101680.82
2018-06-22T20:16:40.309Z,101678.27
2018-06-22T20:19:08.791Z,101680.95
2018-06-22T20:21:38.577Z,101681.84
2018-06-22T20:24:07.156Z,101675.37
2018-06-22T20:26:35.720Z,101679.78
2018-06-22T20:29:04.132Z,101686.38
2018-06-22T20:31:37.897Z,101686.88
2018-06-22T20:34:12.415Z,101687.35
2018-06-22T20:36:45.877Z,101683.91
2018-06-22T20:39:19.568Z,101681.75
2018-06-22T20:41:53.432Z,101689.62
2018-06-22T20:44:27.126Z,101690.51
2018-06-22T20:48:03.132Z,101691.43
2018-06-22T20:50:39.922Z,101689.73
2018-06-22T20:53:09.016Z,101691.06
2018-06-22T20:55:37.402Z,101694.13
2018-06-22T20:58:05.786Z,101694.14
2018-06-22T21:00:39.956Z,101693.73
2018-06-22T21:03:08.917Z,101697.67
2018-06-22T21:05:37.294Z,101705.11
2018-06-22T21:08:05.980Z,101710.77
2018-06-22T21:10:34.432Z,101712.97
2018-06-22T21:13:03.335Z,101714.72
2018-06-22T21:15:31.762Z,101719.11
2018-06-22T21:18:00.154Z,101712.56
2018-06-22T21:20:28.600Z,101720.88
2018-06-22T21:22:57.392Z,101725.67
2018-06-22T21:25:25.926Z,101725.23
2018-06-22T21:27:59.650Z,101726.55
2018-06-22T21:30:34.568Z,101723.08
2018-06-22T21:33:08.377Z,101728.34
2018-06-22T21:35:42.147Z,101733.12
2018-06-22T21:38:15.878Z,101733.59
2018-06-22T21:40:44.330Z,101729.20
2018-06-22T21:43:13.643Z,101731.40
2018-06-22T21:45:42.021Z,101733.56
2018-06-22T21:48:10.507Z,101730.52
2018-06-22T21:50:38.869Z,101737.07
2018-06-22T21:53:07.452Z,101734.02
2018-06-22T21:55:35.872Z,101734.89
2018-06-22T21:58:05.098Z,101737.95
2018-06-22T22:00:41.784Z,101750.15
2018-06-22T22:03:10.282Z,101750.59
2018-06-22T22:05:38.882Z,101746.67
2018-06-22T22:08:08.379Z,101744.91
2018-06-22T22:10:42.017Z,101750.58
2018-06-22T22:13:10.521Z,101754.05
2018-06-22T22:15:38.892Z,101744.89
2018-06-22T22:18:07.317Z,101743.16
2018-06-22T22:20:35.696Z,101746.63
2018-06-22T22:23:04.179Z,101744.03
2018-06-22T22:25:32.563Z,101746.22
2018-06-22T22:28:01.835Z,101741.82
2018-06-22T22:30:39.245Z,101741.82
2018-06-22T22:33:07.728Z,101740.53
2018-06-22T22:35:36.117Z,101748.36
2018-06-22T22:38:05.956Z,101739.21
2018-06-22T22:40:34.369Z,101734.43
2018-06-22T22:43:02.850Z,101738.37
2018-06-22T22:45:31.406Z,101744.45
2018-06-22T22:48:00.836Z,101740.55
2018-06-22T22:50:29.287Z,101744.03
2018-06-22T22:52:57.756Z,101743.17
2018-06-22T22:55:26.560Z,101744.05
2018-06-22T22:57:55.489Z,101742.75
2018-06-22T23:00:29.246Z,101736.20
2018-06-22T23:02:57.785Z,101740.12
2018-06-22T23:05:26.233Z,101739.69
2018-06-22T23:07:54.690Z,101740.11
2018-06-22T23:10:23.116Z,101733.15
2018-06-22T23:12:51.598Z,101734.91
2018-06-22T23:15:20.035Z,101735.34
2018-06-22T23:17:48.641Z,101732.30
2018-06-22T23:20:17.030Z,101728.36
2018-06-22T23:22:56.701Z,101731.42
2018-06-22T23:25:25.143Z,101730.09
2018-06-22T23:27:53.556Z,101726.62
2018-06-22T23:30:29.748Z,101727.49
2018-06-22T23:32:58.347Z,101731.41
2018-06-22T23:35:26.902Z,101721.39
2018-06-22T23:37:56.442Z,101725.75
2018-06-22T23:40:25.336Z,101734.87
2018-06-22T23:42:54.797Z,101726.16
2018-06-22T23:45:23.244Z,101727.48
2018-06-22T23:47:51.649Z,101730.52
2018-06-22T23:50:20.105Z,101727.49
2018-06-22T23:52:48.556Z,101736.21
2018-06-22T23:55:17.098Z,101727.04
2018-06-22T23:57:45.521Z,101729.65
